.
WxDataArchive / Data Records for 2007-06-05
2007-06-04 June 2007 2007-06-06

Data Records for Tuesday, 05 June 2007

Time	Temp	Chill	HIndex	Humid	Dewpt	 Wind 	HiWind	WindDir	Rain 	Barom 
-----	----	-----	------	-----	-----	------	------	-------	-----	----- 
00:00	57.2	57.2	57.2	83	52.1	3	6	315	0.00	29.473 
00:05	57.2	57.2	57.2	83	52.1	2	5	248	0.00	29.479 
00:10	57.3	57.3	57.3	82	51.9	3	7	315	0.00	29.478 
00:15	57.5	57.5	57.5	82	52.0	2	9	270	0.00	29.479 
00:20	57.5	57.5	57.5	83	52.4	2	5	338	0.00	29.484 
00:25	57.3	57.3	57.3	82	51.9	3	7	270	0.00	29.486 
00:30	57.2	57.2	57.2	82	51.8	3	9	292	0.00	29.485 
00:35	57.0	57.0	57.0	83	51.9	2	5	270	0.00	29.485 
00:40	56.9	56.9	56.9	83	51.8	2	7	270	0.00	29.484 
00:45	56.6	56.6	56.6	83	51.5	2	4	270	0.00	29.485 
00:50	56.5	56.5	56.5	84	51.7	2	4	315	0.00	29.488 
00:55	56.3	56.3	56.3	84	51.5	2	5	270	0.00	29.491 
01:00	56.2	56.2	56.2	84	51.4	1	4	270	0.00	29.497 
01:05	56.0	56.0	56.0	84	51.2	2	6	292	0.00	29.499 
01:10	56.0	56.0	56.0	84	51.2	1	5	315	0.00	29.496 
01:15	55.7	55.7	55.7	84	50.9	2	7	315	0.00	29.498 
01:20	55.6	55.6	55.6	84	50.8	2	6	270	0.00	29.496 
01:25	55.4	55.4	55.4	84	50.6	2	5	270	0.00	29.493 
01:30	55.4	55.4	55.4	84	50.6	2	4	338	0.00	29.499 
01:35	55.3	55.3	55.3	84	50.5	2	5	270	0.00	29.501 
01:40	55.3	55.3	55.3	84	50.5	2	5	270	0.00	29.503 
01:45	55.4	55.4	55.4	84	50.6	2	4	315	0.00	29.508 
01:50	55.4	55.4	55.4	83	50.3	2	4	315	0.00	29.506 
01:55	55.3	55.3	55.3	83	50.2	2	5	315	0.00	29.504 
02:00	55.3	55.3	55.3	82	49.9	3	8	270	0.00	29.504 
02:05	55.3	55.3	55.3	82	49.9	1	3	270	0.00	29.504 
02:10	55.1	55.1	55.1	82	49.7	2	4	270	0.00	29.507 
02:15	55.1	55.1	55.1	81	49.4	2	6	270	0.00	29.508 
02:20	55.0	55.0	55.0	81	49.3	2	6	315	0.00	29.511 
02:25	54.8	54.8	54.8	80	48.7	2	5	338	0.00	29.508 
02:30	54.7	54.7	54.7	81	49.0	1	4	292	0.00	29.509 
02:35	54.5	54.5	54.5	81	48.8	2	7	270	0.00	29.510 
02:40	54.2	54.2	54.2	81	48.5	1	4	315	0.00	29.516 
02:45	54.1	54.1	54.1	81	48.4	1	5	315	0.00	29.517 
02:50	53.9	53.9	53.9	81	48.2	1	5	338	0.00	29.518 
02:55	53.9	53.9	53.9	81	48.2	2	5	315	0.00	29.519 
03:00	53.8	53.8	53.8	82	48.4	1	4	292	0.00	29.519 
03:05	53.6	53.6	53.6	82	48.2	1	4	292	0.00	29.528 
03:10	53.5	53.5	53.5	82	48.1	2	9	315	0.00	29.529 
03:15	53.5	53.5	53.5	82	48.1	1	3	315	0.00	29.532 
03:20	53.3	53.3	53.3	82	47.9	1	4	315	0.00	29.535 
03:25	53.3	53.3	53.3	83	48.3	1	5	315	0.00	29.534 
03:30	53.2	53.2	53.2	83	48.2	0	4	315	0.00	29.536 
03:35	53.1	53.1	53.1	83	48.1	1	3	315	0.00	29.537 
03:40	53.1	53.1	53.1	84	48.4	1	3	270	0.00	29.538 
03:45	52.9	52.9	52.9	84	48.2	0	3	270	0.00	29.535 
03:50	52.8	52.8	52.8	84	48.1	1	4	248	0.00	29.537 
03:55	52.8	52.8	52.8	84	48.1	0	2	248	0.00	29.539 
04:00	52.6	52.6	52.6	84	47.9	0	2	248	0.00	29.537 
04:05	52.6	52.6	52.6	84	47.9	1	3	270	0.00	29.540 
04:10	52.5	52.5	52.5	85	48.1	1	2	292	0.00	29.540 
04:15	52.5	52.5	52.5	85	48.1	1	2	292	0.00	29.540 
04:20	52.3	52.3	52.3	85	47.9	1	3	315	0.00	29.542 
04:25	52.3	52.3	52.3	84	47.6	1	3	292	0.00	29.542 
04:30	52.3	52.3	52.3	85	47.9	1	2	292	0.00	29.542 
04:35	52.2	52.2	52.2	85	47.8	0	2	292	0.00	29.544 
04:40	52.2	52.2	52.2	85	47.8	0	1	292	0.00	29.543 
04:45	52.2	52.2	52.2	86	48.1	0	1	292	0.00	29.541 
04:50	52.0	52.0	52.0	86	47.9	0	1	292	0.00	29.541 
04:55	51.9	51.9	51.9	86	47.8	0	1	292	0.00	29.547 
05:00	51.9	51.9	51.9	87	48.2	0	2	292	0.00	29.556 
05:05	51.7	51.7	51.7	87	48.0	0	2	292	0.00	29.557 
05:10	51.9	51.9	51.9	88	48.5	1	3	292	0.00	29.560 
05:15	51.9	51.9	51.9	88	48.5	0	2	292	0.00	29.562 
05:20	51.9	51.9	51.9	88	48.5	1	2	248	0.00	29.563 
05:25	51.9	51.9	51.9	88	48.5	1	3	338	0.00	29.566 
05:30	51.9	51.9	51.9	88	48.5	1	3	270	0.00	29.570 
05:35	52.0	52.0	52.0	88	48.6	1	3	292	0.00	29.571 
05:40	52.0	52.0	52.0	88	48.6	1	2	292	0.00	29.574 
05:45	52.0	52.0	52.0	87	48.3	0	2	315	0.00	29.575 
05:50	52.2	52.2	52.2	87	48.4	1	3	315	0.00	29.577 
05:55	52.3	52.3	52.3	87	48.5	1	3	315	0.00	29.580 
06:00	52.8	52.8	52.8	86	48.7	1	3	315	0.00	29.579 
06:05	52.9	52.9	52.9	85	48.5	2	5	270	0.00	29.586 
06:10	53.2	53.2	53.2	84	48.5	2	3	315	0.00	29.588 
06:15	53.5	53.5	53.5	83	48.5	1	4	292	0.00	29.588 
06:20	53.8	53.8	53.8	81	48.1	3	5	315	0.00	29.588 
06:25	54.2	54.2	54.2	81	48.5	2	6	315	0.00	29.589 
06:30	54.4	54.4	54.4	80	48.4	2	4	292	0.00	29.590 
06:35	54.2	54.2	54.2	80	48.2	2	4	315	0.00	29.589 
06:40	54.2	54.2	54.2	81	48.5	2	9	270	0.00	29.591 
06:45	54.1	54.1	54.1	80	48.1	2	6	315	0.00	29.600 
06:50	54.2	54.2	54.2	81	48.5	2	3	338	0.00	29.603 
06:55	54.4	54.4	54.4	81	48.7	2	3	315	0.00	29.607 
07:00	54.7	54.7	54.7	80	48.7	1	4	315	0.00	29.604 
07:05	54.5	54.5	54.5	80	48.5	2	4	315	0.00	29.606 
07:10	54.7	54.7	54.7	80	48.7	1	4	315	0.00	29.607 
07:15	54.7	54.7	54.7	80	48.7	1	3	292	0.00	29.608 
07:20	54.5	54.5	54.5	79	48.1	2	5	315	0.00	29.612 
07:25	54.4	54.4	54.4	80	48.4	2	4	315	0.00	29.613 
07:30	54.5	54.5	54.5	81	48.8	0	2	292	0.00	29.614 
07:35	54.5	54.5	54.5	82	49.1	1	3	292	0.00	29.612 
07:40	54.5	54.5	54.5	83	49.4	0	1	292	0.00	29.607 
07:45	54.2	54.2	54.2	83	49.1	0	2	315	0.00	29.605 
07:50	54.2	54.2	54.2	84	49.5	0	3	315	0.00	29.611 
07:55	54.2	54.2	54.2	84	49.5	0	2	315	0.00	29.612 
08:00	54.2	54.2	54.2	85	49.8	0	1	315	0.01	29.620 
08:05	54.2	54.2	54.2	86	50.1	0	2	315	0.00	29.621 
08:10	54.2	54.2	54.2	86	50.1	0	1	315	0.00	29.622 
08:15	54.4	54.4	54.4	85	50.0	0	2	315	0.00	29.622 
08:20	54.5	54.5	54.5	85	50.1	1	3	315	0.00	29.628 
08:25	55.0	55.0	55.0	86	50.9	0	2	292	0.00	29.628 
08:30	55.6	55.6	55.6	85	51.2	0	2	292	0.00	29.628 
08:35	56.3	56.3	56.3	84	51.5	0	2	292	0.00	29.630 
08:40	56.3	56.3	56.3	82	50.9	1	3	270	0.00	29.635 
08:45	56.0	56.0	56.0	80	49.9	1	3	270	0.00	29.637 
08:50	56.0	56.0	56.0	81	50.3	1	3	315	0.00	29.644 
08:55	56.0	56.0	56.0	81	50.3	0	2	315	0.00	29.642 
09:00	56.2	56.2	56.2	81	50.4	0	1	315	0.00	29.645 
09:05	56.2	56.2	56.2	80	50.1	1	2	315	0.00	29.649 
09:10	56.5	56.5	56.5	80	50.4	1	4	270	0.00	29.650 
09:15	56.6	56.6	56.6	80	50.5	1	4	248	0.00	29.649 
09:20	57.0	57.0	57.0	78	50.2	1	4	315	0.00	29.651 
09:25	57.6	57.6	57.6	77	50.4	1	4	248	0.00	29.649 
09:30	58.6	58.6	58.6	77	51.4	1	3	315	0.00	29.652 
09:35	58.7	58.7	58.7	74	50.4	1	4	248	0.00	29.651 
09:40	59.2	59.2	59.2	74	50.9	1	3	292	0.00	29.652 
09:45	58.7	58.7	58.7	73	50.1	1	3	292	0.00	29.652 
09:50	59.0	59.0	59.0	75	51.1	1	3	315	0.00	29.654 
09:55	59.8	59.8	59.8	72	50.8	2	5	315	0.00	29.652 
10:00	59.6	59.6	59.6	71	50.2	1	3	315	0.00	29.656 
10:05	59.9	59.9	59.9	73	51.2	1	3	315	0.00	29.662 
10:10	60.1	60.1	60.1	72	51.0	1	3	292	0.00	29.663 
10:15	60.4	60.4	60.4	71	50.9	2	3	292	0.00	29.664 
10:20	60.7	60.7	60.7	69	50.5	2	4	270	0.00	29.663 
10:25	60.5	60.5	60.5	69	50.3	1	4	315	0.00	29.664 
10:30	60.5	60.5	60.5	69	50.3	2	5	315	0.00	29.665 
10:35	60.4	60.4	60.4	69	50.2	1	5	338	0.00	29.668 
10:40	60.5	60.5	60.5	69	50.3	1	3	315	0.00	29.667 
10:45	61.5	61.5	61.5	70	51.6	1	3	292	0.00	29.666 
10:50	61.6	61.6	61.6	68	50.9	1	3	292	0.00	29.666 
10:55	61.5	61.5	61.5	66	50.0	1	4	270	0.00	29.664 
11:00	62.1	62.1	62.1	71	52.6	2	5	315	0.00	29.667 
11:05	62.4	62.4	62.4	66	50.9	2	4	292	0.00	29.669 
11:10	61.8	61.8	61.8	66	50.3	2	5	315	0.00	29.670 
11:15	62.4	62.4	62.4	69	52.1	2	3	270	0.00	29.669 
11:20	63.1	63.1	63.1	65	51.1	2	4	270	0.00	29.668 
11:25	62.6	62.6	62.6	65	50.7	2	4	315	0.00	29.670 
11:30	62.7	62.7	62.7	65	50.8	2	4	292	0.00	29.676 
11:35	63.7	63.7	63.7	67	52.5	1	5	270	0.00	29.678 
11:40	63.7	63.7	63.7	63	50.9	1	5	315	0.00	29.678 
11:45	63.1	63.1	63.1	65	51.1	1	4	292	0.00	29.679 
11:50	63.4	63.4	63.4	62	50.1	1	4	292	0.00	29.680 
11:55	63.5	63.5	63.5	67	52.3	1	4	292	0.00	29.679 
12:00	63.7	63.7	63.7	64	51.3	1	2	270	0.00	29.681 
12:05	63.5	63.5	63.5	65	51.5	1	3	270	0.00	29.683 
12:10	63.4	63.4	63.4	65	51.4	1	2	292	0.00	29.687 
12:15	63.5	63.5	63.5	66	51.9	1	3	315	0.00	29.689 
12:20	64.2	64.2	64.2	62	50.9	0	2	0	0.00	29.686 
12:25	64.2	64.2	64.2	62	50.9	1	6	45	0.00	29.687 
12:30	63.5	63.5	63.5	61	49.8	1	6	315	0.00	29.684 
12:35	64.0	64.0	64.0	67	52.8	1	3	292	0.00	29.687 
12:40	63.9	63.9	63.9	65	51.9	1	2	315	0.00	29.690 
12:45	64.5	64.5	64.5	65	52.5	1	3	0	0.00	29.686 
12:50	64.7	64.7	64.7	62	51.4	2	4	292	0.00	29.689 
12:55	64.3	64.3	64.3	64	51.9	0	2	270	0.00	29.691 
13:00	64.3	64.3	64.3	60	50.1	1	4	0	0.00	29.691 
13:05	64.7	64.7	64.7	63	51.8	1	2	315	0.00	29.692 
13:10	64.7	64.7	64.7	62	51.4	1	4	270	0.00	29.693 
13:15	64.7	64.7	64.7	59	50.0	1	5	338	0.00	29.694 
13:20	64.7	64.7	64.7	61	50.9	1	3	270	0.00	29.694 
13:25	65.0	65.0	65.0	58	49.9	2	5	292	0.00	29.695 
13:30	64.7	64.7	64.7	58	49.6	2	5	315	0.00	29.695 
13:35	65.0	65.0	65.0	61	51.2	1	3	292	0.00	29.697 
13:40	65.0	65.0	65.0	58	49.9	1	3	315	0.00	29.698 
13:45	65.0	65.0	65.0	58	49.9	1	2	315	0.00	29.697 
13:50	64.8	64.8	64.8	60	50.6	1	2	315	0.00	29.699 
13:55	64.7	64.7	64.7	59	50.0	1	4	315	0.00	29.702 
14:00	65.3	65.3	65.3	61	51.5	1	5	292	0.00	29.698 
14:05	66.0	66.0	66.0	56	49.8	2	5	315	0.00	29.698 
14:10	66.0	66.0	66.0	60	51.7	1	3	338	0.00	29.701 
14:15	66.3	66.3	66.3	59	51.5	0	2	338	0.00	29.697 
14:20	66.0	66.0	66.0	58	50.8	1	5	338	0.00	29.700 
14:25	65.5	65.5	65.5	58	50.3	1	3	270	0.00	29.702 
14:30	65.6	65.6	65.6	58	50.4	0	2	315	0.00	29.703 
14:35	65.8	65.8	65.8	56	49.7	1	3	315	0.00	29.700 
14:40	66.0	66.0	66.0	54	48.9	1	4	45	0.00	29.700 
14:45	66.6	66.6	66.6	55	49.9	1	3	180	0.00	29.698 
14:50	66.8	66.8	66.8	53	49.1	1	5	45	0.00	29.696 
14:55	67.4	67.4	67.4	60	53.0	1	3	270	0.00	29.697 
15:00	68.3	68.3	68.3	53	50.5	1	5	45	0.00	29.695 
15:05	68.6	68.6	68.6	52	50.3	1	4	315	0.00	29.695 
15:10	68.1	68.1	68.1	51	49.3	1	2	0	0.00	29.696 
15:15	68.1	68.1	68.1	52	49.8	1	4	0	0.00	29.696 
15:20	67.8	67.8	67.8	51	49.0	1	4	270	0.00	29.696 
15:25	66.9	66.9	66.9	53	49.2	1	3	315	0.00	29.698 
15:30	66.3	66.3	66.3	55	49.6	0	2	270	0.00	29.701 
15:35	66.3	66.3	66.3	54	49.1	0	2	270	0.00	29.702 
15:40	66.1	66.1	66.1	51	47.4	1	3	292	0.00	29.705 
15:45	65.8	65.8	65.8	54	48.7	1	3	292	0.00	29.708 
15:50	66.0	66.0	66.0	56	49.8	1	3	315	0.00	29.709 
15:55	67.3	67.3	67.3	55	50.6	1	3	270	0.00	29.708 
16:00	67.3	67.3	67.3	50	48.0	2	5	270	0.00	29.709 
16:05	67.4	67.4	67.4	50	48.1	1	4	270	0.00	29.712 
16:10	67.9	67.9	67.9	51	49.1	1	3	315	0.00	29.708 
16:15	67.3	67.3	67.3	54	50.1	1	3	0	0.00	29.712 
16:20	66.8	66.8	66.8	55	50.1	0	2	338	0.00	29.713 
16:25	67.3	67.3	67.3	55	50.6	1	4	270	0.00	29.712 
16:30	67.8	67.8	67.8	52	49.5	1	3	292	0.00	29.711 
16:35	68.3	68.3	68.3	54	51.0	1	4	292	0.00	29.712 
16:40	68.3	68.3	68.3	53	50.5	0	1	292	0.00	29.712 
16:45	67.3	67.3	67.3	50	48.0	0	2	292	0.00	29.714 
16:50	66.1	66.1	66.1	54	49.0	1	2	315	0.00	29.719 
16:55	65.5	65.5	65.5	55	48.9	1	3	270	0.00	29.722 
17:00	65.5	65.5	65.5	56	49.4	1	5	292	0.00	29.724 
17:05	65.6	65.6	65.6	57	49.9	1	2	292	0.00	29.721 
17:10	65.8	65.8	65.8	57	50.1	1	3	292	0.00	29.718 
17:15	66.4	66.4	66.4	57	50.7	0	2	315	0.00	29.723 
17:20	66.8	66.8	66.8	52	48.6	2	6	315	0.00	29.722 
17:25	67.1	67.1	67.1	52	48.9	1	3	270	0.00	29.724 
17:30	66.8	66.8	66.8	53	49.1	1	5	292	0.00	29.723 
17:35	66.0	66.0	66.0	54	48.9	1	4	292	0.00	29.726 
17:40	65.8	65.8	65.8	54	48.7	0	2	292	0.00	29.726 
17:45	65.6	65.6	65.6	56	49.5	1	6	270	0.00	29.728 
17:50	65.5	65.5	65.5	55	48.9	1	3	270	0.00	29.728 
17:55	65.6	65.6	65.6	56	49.5	1	3	315	0.00	29.727 
18:00	65.6	65.6	65.6	56	49.5	0	2	315	0.00	29.725 
18:05	66.0	66.0	66.0	54	48.9	1	4	22	0.00	29.724 
18:10	66.1	66.1	66.1	53	48.5	1	4	338	0.00	29.724 
18:15	66.0	66.0	66.0	55	49.4	0	1	315	0.00	29.725 
18:20	66.1	66.1	66.1	54	49.0	1	3	315	0.00	29.725 
18:25	66.0	66.0	66.0	56	49.8	0	2	315	0.00	29.726 
18:30	65.5	65.5	65.5	54	48.4	0	3	292	0.00	29.727 
18:35	65.2	65.2	65.2	53	47.6	1	4	292	0.00	29.728 
18:40	65.2	65.2	65.2	55	48.6	0	3	292	0.00	29.729 
18:45	65.0	65.0	65.0	57	49.4	1	3	45	0.00	29.733 
18:50	64.3	64.3	64.3	59	49.7	1	3	292	0.00	29.731 
18:55	64.2	64.2	64.2	59	49.6	0	3	180	0.00	29.737 
19:00	63.9	63.9	63.9	59	49.3	1	3	45	0.00	29.742 
19:05	63.4	63.4	63.4	59	48.8	1	4	292	0.00	29.744 
19:10	63.1	63.1	63.1	58	48.1	1	3	270	0.00	29.747 
19:15	62.7	62.7	62.7	60	48.6	0	2	292	0.00	29.747 
19:20	62.4	62.4	62.4	60	48.3	0	1	292	0.00	29.748 
19:25	62.1	62.1	62.1	62	48.9	0	2	292	0.00	29.750 
19:30	61.8	61.8	61.8	62	48.6	0	1	292	0.00	29.755 
19:35	61.6	61.6	61.6	63	48.9	0	1	292	0.00	29.759 
19:40	61.3	61.3	61.3	63	48.6	0	1	292	0.00	29.762 
19:45	61.0	61.0	61.0	64	48.7	0	2	292	0.00	29.762 
19:50	60.7	60.7	60.7	65	48.9	0	1	0	0.00	29.763 
19:55	60.5	60.5	60.5	65	48.7	0	1	0	0.00	29.764 
20:00	60.2	60.2	60.2	65	48.4	0	1	0	0.00	29.764 
20:05	59.9	59.9	59.9	65	48.1	0	1	0	0.00	29.763 
20:10	59.6	59.6	59.6	66	48.2	0	3	0	0.00	29.766 
20:15	59.3	59.3	59.3	67	48.3	0	1	0	0.00	29.773 
20:20	59.0	59.0	59.0	67	48.1	0	0	---	0.00	29.772 
20:25	58.7	58.7	58.7	68	48.2	0	0	---	0.00	29.775 
20:30	58.4	58.4	58.4	69	48.3	0	1	0	0.00	29.778 
20:35	58.3	58.3	58.3	69	48.2	0	0	---	0.00	29.779 
20:40	58.0	58.0	58.0	70	48.3	0	0	---	0.00	29.780 
20:45	57.6	57.6	57.6	70	47.9	0	0	---	0.00	29.784 
20:50	57.5	57.5	57.5	71	48.2	0	0	---	0.00	29.785 
20:55	57.2	57.2	57.2	72	48.3	0	0	---	0.00	29.790 
21:00	56.9	56.9	56.9	73	48.3	0	0	---	0.00	29.793 
21:05	56.7	56.7	56.7	72	47.8	0	0	---	0.00	29.791 
21:10	56.6	56.6	56.6	72	47.7	0	0	---	0.00	29.791 
21:15	56.5	56.5	56.5	71	47.2	0	0	---	0.00	29.792 
21:20	56.3	56.3	56.3	73	47.8	0	0	---	0.00	29.795 
21:25	56.3	56.3	56.3	73	47.8	0	0	---	0.00	29.800 
21:30	56.3	56.3	56.3	73	47.8	0	0	---	0.00	29.805 
21:35	56.6	56.6	56.6	71	47.3	0	1	0	0.00	29.808 
21:40	56.9	56.9	56.9	69	46.8	0	2	0	0.00	29.808 
21:45	57.2	57.2	57.2	69	47.1	0	1	0	0.00	29.810 
21:50	57.3	57.3	57.3	69	47.2	0	1	0	0.00	29.817 
21:55	57.3	57.3	57.3	69	47.2	0	1	338	0.00	29.819 
22:00	57.3	57.3	57.3	69	47.2	0	1	338	0.00	29.817 
22:05	57.2	57.2	57.2	69	47.1	0	1	338	0.00	29.815 
22:10	57.0	57.0	57.0	70	47.3	0	0	---	0.00	29.814 
22:15	56.9	56.9	56.9	69	46.8	0	1	338	0.00	29.814 
22:20	56.7	56.7	56.7	70	47.0	0	0	---	0.00	29.820 
22:25	56.5	56.5	56.5	70	46.8	0	0	---	0.00	29.821 
22:30	56.3	56.3	56.3	71	47.0	0	1	338	0.00	29.823 
22:35	56.0	56.0	56.0	71	46.7	0	0	---	0.00	29.823 
22:40	55.9	55.9	55.9	71	46.6	0	0	---	0.00	29.824 
22:45	55.9	55.9	55.9	71	46.6	0	1	338	0.00	29.825 
22:50	55.7	55.7	55.7	72	46.8	0	0	---	0.00	29.825 
22:55	55.7	55.7	55.7	73	47.2	0	0	---	0.00	29.826 
23:00	55.6	55.6	55.6	73	47.1	0	0	---	0.00	29.825 
23:05	55.4	55.4	55.4	73	46.9	0	0	---	0.00	29.829 
23:10	55.4	55.4	55.4	74	47.3	0	0	---	0.00	29.827 
23:15	55.4	55.4	55.4	74	47.3	0	0	---	0.00	29.828 
23:20	55.3	55.3	55.3	73	46.8	0	0	---	0.00	29.829 
23:25	55.3	55.3	55.3	74	47.2	0	0	---	0.00	29.827 
23:30	55.1	55.1	55.1	75	47.3	0	0	---	0.00	29.824 
23:35	54.8	54.8	54.8	75	47.0	0	0	---	0.00	29.822 
23:40	54.5	54.5	54.5	76	47.1	0	0	---	0.00	29.823 
23:45	54.2	54.2	54.2	77	47.1	0	0	---	0.00	29.823 
23:50	53.8	53.8	53.8	78	47.1	0	0	---	0.00	29.823 
23:55	53.5	53.5	53.5	79	47.1	0	0	---	0.00	29.823 

CoCoRaHS
IN-AL-39
A2 Web Hosting
Creative Commons License
GoDaddy
Look for:

loaded 2017-12-11 14:05:52 • last modified 2010-11-18 10:43:29
Privacy PolicyDisclaimer
• wx.awcolley.com is powered by PmWiki v.2002016 •
• all content (unless otherwise noted) © 2017 A W Colley